createdAt,value
2018-04-20T00:01:42.382Z,32.57
2018-04-20T00:04:10.774Z,24.23
2018-04-20T00:06:39.169Z,25.93
2018-04-20T00:09:07.603Z,27.17
2018-04-20T00:11:36.021Z,31.77
2018-04-20T00:14:05.195Z,23.57
2018-04-20T00:16:33.577Z,22.97
2018-04-20T00:19:02.071Z,26.50
2018-04-20T00:21:31.439Z,22.07
2018-04-20T00:23:59.812Z,22.87
2018-04-20T00:26:28.212Z,24.43
2018-04-20T00:28:56.604Z,22.07
2018-04-20T00:31:25.081Z,23.37
2018-04-20T00:33:53.463Z,23.07
2018-04-20T00:36:22.243Z,26.17
2018-04-20T00:38:50.832Z,27.03
2018-04-20T00:41:19.213Z,23.03
2018-04-20T00:43:47.624Z,25.67
2018-04-20T00:46:15.995Z,25.27
2018-04-20T00:48:45.261Z,22.93
2018-04-20T00:51:13.648Z,27.30
2018-04-20T00:53:53.833Z,28.20
2018-04-20T00:56:23.054Z,27.00
2018-04-20T00:58:51.418Z,28.17
2018-04-20T01:01:19.930Z,25.53
2018-04-20T01:03:48.326Z,26.73
2018-04-20T01:06:16.719Z,27.23
2018-04-20T01:08:45.127Z,30.27
2018-04-20T01:11:14.290Z,26.97
2018-04-20T01:13:43.370Z,29.03
2018-04-20T01:16:11.758Z,31.23
2018-04-20T01:18:40.331Z,28.00
2018-04-20T01:21:08.715Z,31.27
2018-04-20T01:23:37.107Z,28.23
2018-04-20T01:26:05.515Z,29.13
2018-04-20T01:28:34.817Z,27.90
2018-04-20T01:31:03.192Z,29.83
2018-04-20T01:33:32.360Z,28.93
2018-04-20T01:36:00.741Z,28.87
2018-04-20T01:38:29.115Z,29.07
2018-04-20T01:40:57.662Z,27.07
2018-04-20T01:43:26.071Z,28.70
2018-04-20T01:45:54.589Z,31.33
2018-04-20T01:48:23.045Z,31.37
2018-04-20T01:50:51.425Z,29.37
2018-04-20T01:53:19.824Z,27.77
2018-04-20T01:55:48.225Z,28.83
2018-04-20T01:58:16.633Z,28.20
2018-04-20T02:00:45.031Z,26.43
2018-04-20T02:03:13.428Z,28.60
2018-04-20T02:05:41.889Z,28.17
2018-04-20T02:08:10.330Z,29.23
2018-04-20T02:10:38.719Z,31.90
2018-04-20T02:13:07.187Z,28.47
2018-04-20T02:15:36.360Z,31.80
2018-04-20T02:18:04.763Z,30.10
2018-04-20T02:20:33.915Z,27.77
2018-04-20T02:23:02.308Z,26.23
2018-04-20T02:25:30.682Z,29.20
2018-04-20T02:27:59.107Z,26.57
2018-04-20T02:30:27.604Z,33.90
2018-04-20T02:32:56.013Z,30.27
2018-04-20T02:35:24.399Z,30.93
2018-04-20T02:37:52.897Z,30.50
2018-04-20T02:40:21.432Z,28.83
2018-04-20T02:42:49.819Z,30.53
2018-04-20T02:45:18.199Z,33.60
2018-04-20T02:47:46.613Z,28.83
2018-04-20T02:50:15.111Z,30.77
2018-04-20T02:52:43.447Z,30.53
2018-04-20T02:55:12.123Z,30.43
2018-04-20T02:57:40.508Z,29.37
2018-04-20T03:00:08.901Z,27.60
2018-04-20T03:02:37.299Z,27.40
2018-04-20T03:05:05.788Z,28.17
2018-04-20T03:07:34.184Z,28.30
2018-04-20T03:10:02.662Z,26.60
2018-04-20T03:12:31.123Z,30.23
2018-04-20T03:14:59.653Z,31.00
2018-04-20T03:17:28.061Z,25.60
2018-04-20T03:19:56.468Z,25.00
2018-04-20T03:22:24.856Z,27.33
2018-04-20T03:24:53.257Z,25.83
2018-04-20T03:27:22.415Z,25.07
2018-04-20T03:29:50.805Z,23.77
2018-04-20T03:32:19.197Z,28.13
2018-04-20T03:34:47.586Z,25.77
2018-04-20T03:37:15.983Z,26.97
2018-04-20T03:39:45.177Z,26.50
2018-04-20T03:42:14.313Z,29.47
2018-04-20T03:44:42.815Z,28.47
2018-04-20T03:47:11.178Z,26.30
2018-04-20T03:49:39.565Z,32.60
2018-04-20T03:52:07.964Z,29.17
2018-04-20T03:54:36.440Z,26.63
2018-04-20T03:57:04.811Z,31.30
2018-04-20T03:59:33.202Z,28.50
2018-04-20T04:02:01.596Z,32.20
2018-04-20T04:04:29.965Z,28.83
2018-04-20T04:06:58.491Z,29.73
2018-04-20T04:09:26.896Z,28.70
2018-04-20T04:11:55.322Z,34.17
2018-04-20T04:14:23.747Z,34.37
2018-04-20T04:17:03.983Z,31.50
2018-04-20T04:19:44.124Z,29.23
2018-04-20T04:22:25.057Z,38.30
2018-04-20T04:25:05.248Z,30.77
2018-04-20T04:27:42.435Z,29.90
2018-04-20T04:30:10.849Z,31.70
2018-04-20T04:32:39.246Z,30.33
2018-04-20T04:35:07.704Z,35.33
2018-04-20T04:37:36.235Z,34.67
2018-04-20T04:40:04.713Z,29.90
2018-04-20T04:42:33.123Z,28.43
2018-04-20T04:45:02.364Z,32.77
2018-04-20T04:47:31.522Z,30.47
2018-04-20T04:50:00.679Z,31.97
2018-04-20T04:52:29.103Z,30.93
2018-04-20T04:54:58.299Z,32.83
2018-04-20T04:57:27.449Z,34.27
2018-04-20T04:59:55.840Z,33.53
2018-04-20T05:02:24.212Z,35.33
2018-04-20T05:04:52.603Z,31.83
2018-04-20T05:07:21.101Z,31.63
2018-04-20T05:09:49.496Z,31.27
2018-04-20T05:12:18.647Z,32.83
2018-04-20T05:14:47.049Z,34.03
2018-04-20T05:17:15.546Z,31.73
2018-04-20T05:19:43.981Z,31.43
2018-04-20T05:22:12.355Z,30.97
2018-04-20T05:24:40.849Z,29.63
2018-04-20T05:27:09.226Z,30.77
2018-04-20T05:29:37.637Z,32.10
2018-04-20T05:32:06.168Z,28.40
2018-04-20T05:34:34.578Z,31.00
2018-04-20T05:37:03.030Z,31.57
2018-04-20T05:39:31.420Z,28.60
2018-04-20T05:41:59.836Z,28.63
2018-04-20T05:44:28.201Z,29.00
2018-04-20T05:46:56.603Z,30.07
2018-04-20T05:49:24.983Z,30.33
2018-04-20T05:51:53.395Z,26.30
2018-04-20T05:54:22.536Z,27.93
2018-04-20T05:56:51.027Z,27.60
2018-04-20T05:59:19.415Z,28.03
2018-04-20T06:02:03.607Z,30.90
2018-04-20T06:04:31.993Z,30.00
2018-04-20T06:07:00.426Z,31.53
2018-04-20T06:09:28.804Z,28.43
2018-04-20T06:11:58.097Z,28.57
2018-04-20T06:14:26.487Z,26.20
2018-04-20T06:16:54.882Z,29.20
2018-04-20T06:19:23.352Z,34.53
2018-04-20T06:21:51.752Z,30.57
2018-04-20T06:24:20.932Z,29.80
2018-04-20T06:26:49.307Z,30.20
2018-04-20T06:29:17.723Z,26.40
2018-04-20T06:31:46.913Z,29.77
2018-04-20T06:34:16.139Z,28.07
2018-04-20T06:36:44.644Z,30.57
2018-04-20T06:39:13.031Z,28.03
2018-04-20T06:41:41.515Z,28.87
2018-04-20T06:44:10.147Z,28.80
2018-04-20T06:46:39.399Z,28.03
2018-04-20T06:49:07.771Z,27.00
2018-04-20T06:51:36.275Z,29.47
2018-04-20T06:54:04.756Z,31.37
2018-04-20T06:56:33.284Z,27.00
2018-04-20T06:59:01.661Z,25.10
2018-04-20T07:01:30.035Z,28.67
2018-04-20T07:03:58.516Z,25.57
2018-04-20T07:06:27.665Z,27.17
2018-04-20T07:08:56.057Z,27.33
2018-04-20T07:11:24.447Z,24.70
2018-04-20T07:13:52.850Z,24.10
2018-04-20T07:16:22.208Z,23.03
2018-04-20T07:18:50.592Z,23.03
2018-04-20T07:21:19.010Z,21.47
2018-04-20T07:23:48.173Z,21.13
2018-04-20T07:26:16.552Z,19.63
2018-04-20T07:28:44.943Z,20.47
2018-04-20T07:31:13.329Z,18.50
2018-04-20T07:33:41.727Z,19.40
2018-04-20T07:36:10.136Z,17.17
2018-04-20T07:38:38.549Z,17.27
2018-04-20T07:41:06.940Z,17.93
2018-04-20T07:43:35.395Z,17.10
2018-04-20T07:46:03.781Z,16.70
2018-04-20T07:48:32.207Z,17.33
2018-04-20T07:51:00.655Z,18.03
2018-04-20T07:53:29.070Z,18.80
2018-04-20T07:55:58.240Z,14.57
2018-04-20T07:58:26.653Z,17.00
2018-04-20T08:00:55.066Z,18.95
2018-04-20T08:03:23.478Z,16.87
2018-04-20T08:05:51.981Z,14.32
2018-04-20T08:08:20.355Z,14.83
2018-04-20T08:10:48.805Z,16.53
2018-04-20T08:13:17.783Z,14.60
2018-04-20T08:15:46.207Z,15.10
2018-04-20T08:18:15.389Z,13.63
2018-04-20T08:20:44.655Z,14.48
2018-04-20T08:23:13.050Z,16.15
2018-04-20T08:25:41.437Z,13.60
2018-04-20T08:28:09.822Z,18.30
2018-04-20T08:30:38.323Z,13.95
2018-04-20T08:33:06.705Z,12.52
2018-04-20T08:35:35.984Z,16.25
2018-04-20T08:38:04.470Z,15.50
2018-04-20T08:40:32.860Z,13.25
2018-04-20T08:43:01.263Z,15.27
2018-04-20T08:45:30.438Z,17.12
2018-04-20T08:47:59.061Z,13.35
2018-04-20T08:50:27.500Z,16.95
2018-04-20T08:52:55.969Z,13.75
2018-04-20T08:55:24.432Z,13.80
2018-04-20T08:57:52.822Z,13.23
2018-04-20T09:00:21.305Z,12.60
2018-04-20T09:02:49.707Z,11.73
2018-04-20T09:05:18.182Z,12.85
2018-04-20T09:07:46.559Z,16.08
2018-04-20T09:10:15.028Z,12.65
2018-04-20T09:12:43.402Z,10.63
2018-04-20T09:15:12.692Z,12.93
2018-04-20T09:17:41.075Z,13.55
2018-04-20T09:20:09.457Z,14.07
2018-04-20T09:22:37.839Z,14.23
2018-04-20T09:25:06.224Z,14.02
2018-04-20T09:27:34.761Z,14.48
2018-04-20T09:30:03.948Z,14.18
2018-04-20T09:32:33.092Z,13.93
2018-04-20T09:35:01.585Z,12.32
2018-04-20T09:37:30.074Z,12.15
2018-04-20T09:39:58.451Z,13.07
2018-04-20T09:42:26.819Z,9.57
2018-04-20T09:44:55.206Z,10.07
2018-04-20T09:47:23.792Z,10.98
2018-04-20T09:49:52.273Z,8.25
2018-04-20T09:52:20.644Z,9.02
2018-04-20T09:54:49.133Z,13.70
2018-04-20T09:57:17.561Z,12.55
2018-04-20T09:59:45.999Z,10.70
2018-04-20T10:02:14.419Z,11.10
2018-04-20T10:04:43.560Z,14.10
2018-04-20T10:07:11.952Z,10.63
2018-04-20T10:09:40.561Z,11.88
2018-04-20T10:12:08.931Z,12.48
2018-04-20T10:14:37.562Z,9.82
2018-04-20T10:17:05.994Z,8.18
2018-04-20T10:19:34.461Z,7.70
2018-04-20T10:22:02.833Z,13.25
2018-04-20T10:24:31.217Z,8.35
2018-04-20T10:26:59.695Z,6.65
2018-04-20T10:29:28.070Z,6.03
2018-04-20T10:31:56.564Z,8.25
2018-04-20T10:34:25.064Z,7.95
2018-04-20T10:36:53.632Z,9.25
2018-04-20T10:39:22.010Z,8.20
2018-04-20T10:41:50.488Z,7.10
2018-04-20T10:44:18.963Z,9.95
2018-04-20T10:46:47.320Z,7.20
2018-04-20T10:49:15.848Z,6.80
2018-04-20T10:51:44.224Z,5.93
2018-04-20T10:54:12.624Z,7.05
2018-04-20T10:56:41.606Z,6.25
2018-04-20T10:59:10.071Z,8.90
2018-04-20T11:01:38.449Z,6.28
2018-04-20T11:04:06.852Z,7.65
2018-04-20T11:06:35.331Z,8.48
2018-04-20T11:09:03.710Z,7.80
2018-04-20T11:11:32.203Z,7.12
2018-04-20T11:14:00.552Z,6.97
2018-04-20T11:16:28.919Z,8.90
2018-04-20T11:18:57.300Z,6.97
2018-04-20T11:21:25.751Z,9.48
2018-04-20T11:23:54.115Z,6.35
2018-04-20T11:26:23.274Z,8.32
2018-04-20T11:28:51.756Z,6.87
2018-04-20T11:31:20.138Z,5.40
2018-04-20T11:33:48.617Z,7.95
2018-04-20T11:36:17.090Z,9.00
2018-04-20T11:38:45.453Z,8.60
2018-04-20T11:41:13.847Z,7.90
2018-04-20T11:43:42.228Z,8.57
2018-04-20T11:46:10.609Z,7.37
2018-04-20T11:48:39.088Z,8.70
2018-04-20T11:51:07.452Z,10.13
2018-04-20T11:53:35.968Z,7.40
2018-04-20T11:56:04.552Z,6.43
2018-04-20T11:58:33.033Z,11.93
2018-04-20T12:01:01.515Z,9.13
2018-04-20T12:03:29.984Z,8.82
2018-04-20T12:05:58.459Z,10.52
2018-04-20T12:08:26.877Z,9.18
2018-04-20T12:10:56.049Z,8.57
2018-04-20T12:13:24.661Z,10.13
2018-04-20T12:15:53.085Z,12.77
2018-04-20T12:18:21.453Z,9.50
2018-04-20T12:20:49.859Z,9.77
2018-04-20T12:23:18.238Z,10.05
2018-04-20T12:25:46.718Z,9.98
2018-04-20T12:28:19.316Z,7.78
2018-04-20T12:30:47.726Z,10.40
2018-04-20T12:33:16.877Z,10.35
2018-04-20T12:35:45.280Z,9.40
2018-04-20T12:38:13.750Z,13.18
2018-04-20T12:40:42.242Z,10.02
2018-04-20T12:43:10.705Z,8.10
2018-04-20T12:45:39.111Z,6.70
2018-04-20T12:48:07.452Z,8.73
2018-04-20T12:50:35.841Z,7.68
2018-04-20T12:53:04.277Z,9.98
2018-04-20T12:55:32.746Z,10.02
2018-04-20T12:58:01.915Z,9.15
2018-04-20T13:00:30.473Z,8.43
2018-04-20T13:02:58.857Z,11.75
2018-04-20T13:05:27.363Z,8.00
2018-04-20T13:07:55.840Z,7.40
2018-04-20T13:10:24.324Z,10.80
2018-04-20T13:12:52.817Z,9.38
2018-04-20T13:15:21.294Z,10.38
2018-04-20T13:17:49.668Z,7.53
2018-04-20T13:20:18.148Z,11.93
2018-04-20T13:22:46.620Z,10.40
2018-04-20T13:25:15.165Z,11.15
2018-04-20T13:27:43.534Z,8.68
2018-04-20T13:30:11.979Z,16.42
2018-04-20T13:32:40.395Z,13.85
2018-04-20T13:35:08.827Z,14.15
2018-04-20T13:37:37.316Z,11.90
2018-04-20T13:40:05.801Z,14.20
2018-04-20T13:42:34.182Z,10.77
2018-04-20T13:45:02.835Z,12.27
2018-04-20T13:47:32.152Z,14.00
2018-04-20T13:50:00.627Z,13.13
2018-04-20T13:52:29.024Z,11.77
2018-04-20T13:54:57.417Z,18.10
2018-04-20T13:57:25.883Z,13.93
2018-04-20T13:59:54.294Z,11.20
2018-04-20T14:02:23.487Z,12.25
2018-04-20T14:04:51.939Z,13.38
2018-04-20T14:07:20.337Z,10.65
2018-04-20T14:09:48.829Z,12.50
2018-04-20T14:12:17.978Z,10.93
2018-04-20T14:14:46.368Z,10.40
2018-04-20T14:17:14.891Z,13.32
2018-04-20T14:19:44.046Z,11.85
2018-04-20T14:22:12.419Z,13.75
2018-04-20T14:24:40.821Z,14.95
2018-04-20T14:27:09.210Z,14.45
2018-04-20T14:29:37.685Z,16.12
2018-04-20T14:32:06.255Z,14.10
2018-04-20T14:34:34.678Z,15.10
2018-04-20T14:37:03.054Z,17.10
2018-04-20T14:39:32.235Z,14.95
2018-04-20T14:42:00.725Z,18.23
2018-04-20T14:44:29.207Z,18.48
2018-04-20T14:46:57.609Z,13.43
2018-04-20T14:49:26.049Z,16.12
2018-04-20T14:51:54.433Z,16.67
2018-04-20T14:54:22.805Z,14.30
2018-04-20T14:56:51.311Z,14.77
2018-04-20T14:59:19.680Z,11.40
2018-04-20T15:01:48.081Z,12.57
2018-04-20T15:04:16.473Z,14.57
2018-04-20T15:06:44.923Z,11.57
2018-04-20T15:09:13.495Z,13.60
2018-04-20T15:11:41.978Z,11.00
2018-04-20T15:14:10.334Z,11.12
2018-04-20T15:16:38.840Z,11.55
2018-04-20T15:19:07.210Z,13.13
2018-04-20T15:21:35.588Z,11.70
2018-04-20T15:24:03.979Z,11.97
2018-04-20T15:26:32.457Z,14.25
2018-04-20T15:29:01.749Z,10.55
2018-04-20T15:31:30.123Z,10.38
2018-04-20T15:33:58.543Z,7.87
2018-04-20T15:36:27.726Z,12.70
2018-04-20T15:38:56.352Z,9.82
2018-04-20T15:41:24.735Z,9.25
2018-04-20T15:43:53.188Z,8.43
2018-04-20T15:46:21.598Z,10.02
2018-04-20T15:48:50.042Z,8.68
2018-04-20T15:51:18.564Z,9.98
2018-04-20T15:53:46.936Z,10.98
2018-04-20T15:56:15.311Z,9.65
2018-04-20T15:58:43.827Z,10.23
2018-04-20T16:01:12.227Z,10.35
2018-04-20T16:03:40.692Z,9.40
2018-04-20T16:06:09.394Z,7.78
2018-04-20T16:08:37.754Z,8.60
2018-04-20T16:11:06.164Z,12.45
2018-04-20T16:13:34.627Z,7.60
2018-04-20T16:16:03.857Z,9.85
2018-04-20T16:18:33.535Z,10.20
2018-04-20T16:21:02.019Z,10.25
2018-04-20T16:23:30.404Z,9.73
2018-04-20T16:25:58.810Z,9.93
2018-04-20T16:28:27.183Z,8.63
2018-04-20T16:30:55.671Z,12.05
2018-04-20T16:33:24.132Z,11.23
2018-04-20T16:35:52.612Z,10.02
2018-04-20T16:38:20.984Z,9.65
2018-04-20T16:40:49.370Z,7.85
2018-04-20T16:43:17.900Z,7.30
2018-04-20T16:45:46.289Z,6.57
2018-04-20T16:48:14.677Z,7.22
2018-04-20T16:50:43.089Z,8.13
2018-04-20T16:53:11.576Z,6.20
2018-04-20T16:55:39.997Z,7.62
2018-04-20T16:58:08.396Z,11.88
2018-04-20T17:00:36.803Z,9.63
2018-04-20T17:03:05.182Z,7.05
2018-04-20T17:05:33.564Z,9.68
2018-04-20T17:08:01.945Z,9.98
2018-04-20T17:10:30.324Z,8.65
2018-04-20T17:12:58.761Z,10.38
2018-04-20T17:15:27.139Z,11.23
2018-04-20T17:17:55.593Z,7.90
2018-04-20T17:20:24.058Z,8.20
2018-04-20T17:22:52.520Z,11.27
2018-04-20T17:25:20.945Z,10.25
2018-04-20T17:27:50.096Z,9.45
2018-04-20T17:30:18.525Z,8.25
2018-04-20T17:32:46.940Z,12.98
2018-04-20T17:35:15.341Z,11.90
2018-04-20T17:37:43.881Z,12.88
2018-04-20T17:40:12.302Z,9.43
2018-04-20T17:42:40.811Z,11.20
2018-04-20T17:45:09.173Z,11.63
2018-04-20T17:47:37.544Z,9.48
2018-04-20T17:50:05.948Z,9.10
2018-04-20T17:52:34.362Z,7.68
2018-04-20T17:55:02.850Z,9.52
2018-04-20T17:57:31.270Z,8.90
2018-04-20T17:59:59.640Z,14.15
2018-04-20T18:02:28.016Z,9.18
2018-04-20T18:04:56.404Z,9.77
2018-04-20T18:07:24.792Z,8.35
2018-04-20T18:09:53.265Z,9.55
2018-04-20T18:12:21.745Z,7.85
2018-04-20T18:14:50.237Z,11.15
2018-04-20T18:17:18.605Z,10.18
2018-04-20T18:19:47.092Z,8.85
2018-04-20T18:22:15.503Z,9.88
2018-04-20T18:24:44.721Z,9.90
2018-04-20T18:27:13.865Z,10.10
2018-04-20T18:29:42.245Z,11.02
2018-04-20T18:32:10.795Z,10.98
2018-04-20T18:34:39.208Z,7.18
2018-04-20T18:37:07.583Z,10.82
2018-04-20T18:39:36.000Z,14.32
2018-04-20T18:42:05.163Z,9.98
2018-04-20T18:44:34.460Z,7.45
2018-04-20T18:47:02.864Z,11.35
2018-04-20T18:49:31.263Z,9.32
2018-04-20T18:52:00.592Z,12.45
2018-04-20T18:54:29.026Z,14.07
2018-04-20T18:56:57.456Z,25.05
2018-04-20T18:59:27.123Z,14.43
2018-04-20T19:01:55.568Z,18.85
2018-04-20T19:04:24.130Z,17.17
2018-04-20T19:06:52.606Z,17.33
2018-04-20T19:09:20.985Z,14.60
2018-04-20T19:11:49.386Z,14.98
2018-04-20T19:14:17.782Z,14.55
2018-04-20T19:16:46.170Z,20.80
2018-04-20T19:19:14.560Z,17.27
2018-04-20T19:21:42.991Z,15.88
2018-04-20T19:24:11.534Z,19.10
2018-04-20T19:26:39.903Z,18.20
2018-04-20T19:29:08.374Z,15.63
2018-04-20T19:31:36.794Z,13.60
2018-04-20T19:34:06.076Z,16.00
2018-04-20T19:36:34.564Z,15.93
2018-04-20T19:39:04.026Z,12.98
2018-04-20T19:41:32.445Z,16.37
2018-04-20T19:44:01.636Z,15.43
2018-04-20T19:46:30.059Z,17.87
2018-04-20T19:48:58.500Z,25.48
2018-04-20T19:51:27.014Z,21.10
2018-04-20T19:53:55.641Z,19.42
2018-04-20T19:56:24.145Z,15.93
2018-04-20T19:58:52.651Z,15.90
2018-04-20T20:01:21.112Z,16.55
2018-04-20T20:03:49.504Z,15.73
2018-04-20T20:06:18.705Z,14.35
2018-04-20T20:08:47.862Z,16.70
2018-04-20T20:11:16.274Z,13.23
2018-04-20T20:13:45.408Z,12.48
2018-04-20T20:16:13.852Z,14.73
2018-04-20T20:18:43.032Z,18.42
2018-04-20T20:21:11.466Z,12.93
2018-04-20T20:23:41.455Z,17.65
2018-04-20T20:26:10.594Z,17.25
2018-04-20T20:28:39.007Z,16.48
2018-04-20T20:31:07.601Z,16.35
2018-04-20T20:33:36.045Z,12.40
2018-04-20T20:36:05.269Z,14.13
2018-04-20T20:38:33.651Z,17.93
2018-04-20T20:41:02.129Z,15.27
2018-04-20T20:43:30.545Z,16.87
2018-04-20T20:45:59.764Z,20.70
2018-04-20T20:48:28.136Z,19.70
2018-04-20T20:50:56.558Z,16.00
2018-04-20T20:53:25.152Z,17.30
2018-04-20T20:55:53.552Z,16.67
2018-04-20T20:58:22.713Z,17.40
2018-04-20T21:00:51.104Z,18.57
2018-04-20T21:03:19.492Z,20.52
2018-04-20T21:05:48.156Z,18.95
2018-04-20T21:08:16.562Z,14.13
2018-04-20T21:10:45.013Z,24.47
2018-04-20T21:13:13.409Z,22.03
2018-04-20T21:15:41.826Z,21.87
2018-04-20T21:18:10.986Z,24.70
2018-04-20T21:20:39.366Z,20.77
2018-04-20T21:23:07.820Z,21.43
2018-04-20T21:25:36.222Z,18.90
2018-04-20T21:28:04.617Z,19.33
2018-04-20T21:30:33.003Z,22.85
2018-04-20T21:33:01.396Z,20.97
2018-04-20T21:35:30.612Z,20.60
2018-04-20T21:37:59.011Z,20.83
2018-04-20T21:40:27.440Z,21.17
2018-04-20T21:42:55.825Z,17.70
2018-04-20T21:45:24.210Z,18.53
2018-04-20T21:47:53.362Z,20.47
2018-04-20T21:50:21.758Z,19.17
2018-04-20T21:52:50.175Z,22.27
2018-04-20T21:55:19.354Z,24.80
2018-04-20T21:57:47.752Z,22.67
2018-04-20T22:00:16.923Z,21.90
2018-04-20T22:02:45.307Z,23.93
2018-04-20T22:05:13.788Z,25.50
2018-04-20T22:07:42.290Z,22.70
2018-04-20T22:10:10.692Z,20.70
2018-04-20T22:12:39.146Z,24.20
2018-04-20T22:15:07.607Z,25.13
2018-04-20T22:17:35.996Z,25.27
2018-04-20T22:20:04.421Z,22.73
2018-04-20T22:22:32.833Z,20.90
2018-04-20T22:25:01.333Z,25.25
2018-04-20T22:27:29.749Z,25.00
2018-04-20T22:29:58.191Z,22.13
2018-04-20T22:32:26.614Z,23.40
2018-04-20T22:34:55.668Z,26.40
2018-04-20T22:37:24.040Z,22.20
2018-04-20T22:39:53.374Z,27.43
2018-04-20T22:42:21.807Z,27.03
2018-04-20T22:44:50.194Z,26.60
2018-04-20T22:47:18.599Z,26.37
2018-04-20T22:49:47.129Z,26.03
2018-04-20T22:52:16.272Z,25.67
2018-04-20T22:54:44.754Z,26.73
2018-04-20T22:57:13.161Z,27.07
2018-04-20T22:59:42.314Z,33.47
2018-04-20T23:02:10.796Z,30.30
2018-04-20T23:04:39.185Z,24.27
2018-04-20T23:07:07.576Z,28.13
2018-04-20T23:09:36.242Z,29.63
2018-04-20T23:12:04.841Z,26.53
2018-04-20T23:14:33.224Z,26.57
2018-04-20T23:17:01.825Z,29.23
2018-04-20T23:19:30.230Z,26.40
2018-04-20T23:21:58.689Z,30.93
2018-04-20T23:24:27.975Z,28.03
2018-04-20T23:26:56.373Z,30.40
2018-04-20T23:29:25.542Z,30.17
2018-04-20T23:31:53.945Z,26.73
2018-04-20T23:34:23.091Z,33.40
2018-04-20T23:36:51.590Z,35.73
2018-04-20T23:39:20.549Z,32.70
2018-04-20T23:41:48.981Z,30.10
2018-04-20T23:44:17.403Z,36.20
2018-04-20T23:46:45.803Z,33.53
2018-04-20T23:49:14.267Z,29.70
2018-04-20T23:51:42.746Z,32.27
2018-04-20T23:54:11.157Z,30.90
2018-04-20T23:56:39.579Z,36.33
2018-04-20T23:59:08.085Z,35.10
